PWSweather.com
Personal Weather Stations
Station Observations
RAINWISE1
Me, Trenton, ME 04605

MeTrenton, ME 04605

Lat: 44.4672899, Lon: -68.361951

Elevation: 58

Station Type: Rainwise MK-III

Latest ConditionsUpdated 5:19:00 PM EST Sunday, Jan 19, 2020
Currently Today's Max Today's Min Today's Average
Temperature 17.8°F-7.9°C 33.7°F0.9°C 15.6°F-9.1°C 24.9°F-3.9°C
Dew Point 14.6°F-9.7°C 32.9°F0.5°C 13.2°F-10.4°C 22.8°F-5.1°C
Winds 3.3 mph NNW5.3 kmh NNW 9.5 mph -15.3 kmh - - 3.8 mph 6.1 kmh
Wind Gusts -- -- - -
Humidity 87% 97% 81% 91%
Pressure 29.65 in1004.1 mb 29.89 in1012.2 mb 29.47 in998.0 mb -
Precipitation - 0.11 in2.8 mm - -
Hour Temp Dew Point Humidity Winds Wind Gusts Pressure Precip Precip Rate Daily Precip Total
05:19 PM 17.8°F-7.9°C 14.6°F-9.7°C 87% 3.3 mph NNW5.3 kmh NNW -- 29.65 in1004.1 mb 0.00 in0.0 mm 0.00 in0.0 mm 0.11 in2.8 mm
05:14 PM 18.1°F-7.7°C 14.9°F-9.5°C 87% 3.8 mph N6.1 kmh N -- 29.65 in1004.1 mb 0.00 in0.0 mm 0.00 in0.0 mm 0.11 in2.8 mm
05:08 PM 18.3°F-7.6°C 15.1°F-9.4°C 87% 3.2 mph N5.1 kmh N -- 29.65 in1004.1 mb 0.00 in0.0 mm 0.00 in0.0 mm 0.11 in2.8 mm
05:03 PM 18.6°F-7.4°C 15.4°F-9.2°C 87% 4.5 mph N7.2 kmh N -- 29.65 in1004.1 mb 0.00 in0.0 mm 0.00 in0.0 mm 0.11 in2.8 mm
04:57 PM 18.8°F-7.3°C 15.6°F-9.1°C 87% 6.5 mph NNW10.5 kmh NNW -- 29.64 in1003.7 mb 0.00 in0.0 mm 0.00 in0.0 mm 0.11 in2.8 mm
04:51 PM 18.8°F-7.3°C 15.6°F-9.1°C 87% 3.8 mph N6.1 kmh N -- 29.64 in1003.7 mb 0.00 in0.0 mm 0.00 in0.0 mm 0.11 in2.8 mm
04:46 PM 18.8°F-7.3°C 15.6°F-9.1°C 87% 3.9 mph NNW6.3 kmh NNW -- 29.63 in1003.4 mb 0.00 in0.0 mm 0.00 in0.0 mm 0.11 in2.8 mm
04:40 PM 18.9°F-7.3°C 15.7°F-9.1°C 87% 4.1 mph N6.6 kmh N -- 29.62 in1003.0 mb 0.00 in0.0 mm 0.00 in0.0 mm 0.11 in2.8 mm
04:35 PM 19.0°F-7.2°C 15.8°F-9.0°C 87% 4.4 mph N7.1 kmh N -- 29.62 in1003.0 mb 0.00 in0.0 mm 0.00 in0.0 mm 0.11 in2.8 mm
04:30 PM 19.1°F-7.2°C 15.9°F-8.9°C 87% 2.2 mph NNE3.5 kmh NNE -- 29.61 in1002.7 mb 0.00 in0.0 mm 0.00 in0.0 mm 0.11 in2.8 mm
04:24 PM 19.3°F-7.1°C 15.8°F-9.0°C 86% 2.8 mph NNE4.5 kmh NNE -- 29.61 in1002.7 mb 0.00 in0.0 mm 0.00 in0.0 mm 0.11 in2.8 mm
04:19 PM 19.3°F-7.1°C 15.8°F-9.0°C 86% 4.0 mph N6.4 kmh N -- 29.61 in1002.7 mb 0.00 in0.0 mm 0.00 in0.0 mm 0.11 in2.8 mm
04:13 PM 19.6°F-6.9°C 16.1°F-8.8°C 86% 4.3 mph NNE6.9 kmh NNE -- 29.60 in1002.4 mb 0.00 in0.0 mm 0.00 in0.0 mm 0.11 in2.8 mm
04:08 PM 19.6°F-6.9°C 16.1°F-8.8°C 86% 3.7 mph N6.0 kmh N -- 29.60 in1002.4 mb 0.00 in0.0 mm 0.00 in0.0 mm 0.11 in2.8 mm
04:02 PM 20.0°F-6.7°C 16.2°F-8.8°C 85% 4.1 mph N6.6 kmh N -- 29.60 in1002.4 mb 0.00 in0.0 mm 0.00 in0.0 mm 0.11 in2.8 mm
03:57 PM 20.2°F-6.6°C 16.4°F-8.7°C 85% 5.3 mph N8.5 kmh N -- 29.59 in1002.0 mb 0.00 in0.0 mm 0.00 in0.0 mm 0.11 in2.8 mm
03:52 PM 20.6°F-6.3°C 16.8°F-8.4°C 85% 5.6 mph N9.0 kmh N -- 29.59 in1002.0 mb 0.00 in0.0 mm 0.00 in0.0 mm 0.11 in2.8 mm
03:46 PM 21.0°F-6.1°C 17.2°F-8.2°C 85% 5.9 mph N9.5 kmh N -- 29.59 in1002.0 mb 0.00 in0.0 mm 0.00 in0.0 mm 0.11 in2.8 mm
03:41 PM 21.1°F-6.1°C 17.0°F-8.3°C 84% 9.1 mph N14.6 kmh N -- 29.59 in1002.0 mb 0.00 in0.0 mm 0.00 in0.0 mm 0.11 in2.8 mm
03:35 PM 21.3°F-5.9°C 17.2°F-8.2°C 84% 6.5 mph N10.5 kmh N -- 29.58 in1001.7 mb 0.00 in0.0 mm 0.00 in0.0 mm 0.11 in2.8 mm
03:30 PM 21.7°F-5.7°C 17.6°F-8.0°C 84% 5.6 mph NNE9.0 kmh NNE -- 29.58 in1001.7 mb 0.00 in0.0 mm 0.00 in0.0 mm 0.11 in2.8 mm
03:24 PM 22.3°F-5.4°C 18.2°F-7.7°C 84% 8.5 mph N13.7 kmh N -- 29.58 in1001.7 mb 0.00 in0.0 mm 0.00 in0.0 mm 0.11 in2.8 mm
03:19 PM 22.5°F-5.3°C 18.4°F-7.6°C 84% 7.4 mph N11.9 kmh N -- 29.58 in1001.7 mb 0.00 in0.0 mm 0.00 in0.0 mm 0.11 in2.8 mm
03:13 PM 22.8°F-5.1°C 18.7°F-7.4°C 84% 6.7 mph NE10.8 kmh NE -- 29.58 in1001.7 mb 0.00 in0.0 mm 0.00 in0.0 mm 0.11 in2.8 mm
03:08 PM 22.6°F-5.2°C 18.5°F-7.5°C 84% 3.8 mph N6.1 kmh N -- 29.57 in1001.4 mb 0.00 in0.0 mm 0.00 in0.0 mm 0.11 in2.8 mm
03:02 PM 22.6°F-5.2°C 18.5°F-7.5°C 84% 6.0 mph N9.7 kmh N -- 29.56 in1001.0 mb 0.00 in0.0 mm 0.00 in0.0 mm 0.11 in2.8 mm
02:56 PM 22.8°F-5.1°C 18.4°F-7.6°C 83% 3.6 mph N5.8 kmh N -- 29.56 in1001.0 mb 0.00 in0.0 mm 0.00 in0.0 mm 0.11 in2.8 mm
02:51 PM 23.3°F-4.8°C 18.9°F-7.3°C 83% 6.3 mph N10.1 kmh N -- 29.57 in1001.4 mb 0.00 in0.0 mm 0.00 in0.0 mm 0.11 in2.8 mm
02:45 PM 24.0°F-4.4°C 19.3°F-7.1°C 82% 3.9 mph N6.3 kmh N -- 29.56 in1001.0 mb 0.00 in0.0 mm 0.00 in0.0 mm 0.11 in2.8 mm
02:40 PM 24.4°F-4.2°C 19.7°F-6.8°C 82% 5.2 mph N8.4 kmh N -- 29.56 in1001.0 mb 0.00 in0.0 mm 0.00 in0.0 mm 0.11 in2.8 mm
02:35 PM 24.6°F-4.1°C 20.2°F-6.6°C 83% 6.7 mph N10.8 kmh N -- 29.56 in1001.0 mb 0.00 in0.0 mm 0.00 in0.0 mm 0.11 in2.8 mm
02:30 PM 24.6°F-4.1°C 20.2°F-6.6°C 83% 6.3 mph NNE10.1 kmh NNE -- 29.56 in1001.0 mb 0.00 in0.0 mm 0.00 in0.0 mm 0.11 in2.8 mm
02:24 PM 24.2°F-4.3°C 19.8°F-6.8°C 83% 5.2 mph NNE8.4 kmh NNE -- 29.55 in1000.7 mb 0.00 in0.0 mm 0.00 in0.0 mm 0.11 in2.8 mm
02:18 PM 23.8°F-4.6°C 19.4°F-7.0°C 83% 5.4 mph NE8.7 kmh NE -- 29.54 in1000.3 mb 0.00 in0.0 mm 0.00 in0.0 mm 0.11 in2.8 mm
02:12 PM 24.0°F-4.4°C 19.3°F-7.1°C 82% 7.4 mph NNE11.9 kmh NNE -- 29.54 in1000.3 mb 0.00 in0.0 mm 0.00 in0.0 mm 0.11 in2.8 mm
02:06 PM 25.0°F-3.9°C 20.0°F-6.7°C 81% 2.6 mph NE4.2 kmh NE -- 29.54 in1000.3 mb 0.00 in0.0 mm 0.00 in0.0 mm 0.10 in2.5 mm
02:01 PM 26.1°F-3.3°C 21.1°F-6.1°C 81% 5.2 mph NE8.4 kmh NE -- 29.53 in1000.0 mb 0.00 in0.0 mm 0.00 in0.0 mm 0.10 in2.5 mm
01:56 PM 26.3°F-3.2°C 21.6°F-5.8°C 82% 6.0 mph N9.7 kmh N -- 29.53 in1000.0 mb 0.00 in0.0 mm 0.00 in0.0 mm 0.10 in2.5 mm
01:50 PM 26.1°F-3.3°C 21.4°F-5.9°C 82% 3.9 mph NNW6.3 kmh NNW -- 29.53 in1000.0 mb 0.00 in0.0 mm 0.00 in0.0 mm 0.10 in2.5 mm
01:45 PM 26.3°F-3.2°C 21.6°F-5.8°C 82% 3.9 mph N6.3 kmh N -- 29.53 in1000.0 mb 0.00 in0.0 mm 0.00 in0.0 mm 0.10 in2.5 mm
01:39 PM 26.4°F-3.1°C 21.7°F-5.7°C 82% 4.5 mph N7.2 kmh N -- 29.53 in1000.0 mb 0.00 in0.0 mm 0.00 in0.0 mm 0.10 in2.5 mm
01:34 PM 26.3°F-3.2°C 21.9°F-5.6°C 83% 5.5 mph N8.9 kmh N -- 29.53 in1000.0 mb 0.00 in0.0 mm 0.00 in0.0 mm 0.10 in2.5 mm
01:28 PM 25.9°F-3.4°C 21.5°F-5.8°C 83% 3.9 mph NNE6.3 kmh NNE -- 29.53 in1000.0 mb 0.00 in0.0 mm 0.00 in0.0 mm 0.10 in2.5 mm
01:22 PM 25.7°F-3.5°C 21.3°F-5.9°C 83% 4.8 mph N7.7 kmh N -- 29.52 in999.7 mb 0.00 in0.0 mm 0.00 in0.0 mm 0.10 in2.5 mm
01:17 PM 25.8°F-3.4°C 21.4°F-5.9°C 83% 6.2 mph N10.0 kmh N -- 29.52 in999.7 mb 0.00 in0.0 mm 0.00 in0.0 mm 0.10 in2.5 mm
01:11 PM 25.8°F-3.4°C 21.4°F-5.9°C 83% 6.8 mph N10.9 kmh N -- 29.52 in999.7 mb 0.00 in0.0 mm 0.00 in0.0 mm 0.10 in2.5 mm
01:05 PM 26.1°F-3.3°C 21.9°F-5.6°C 84% 6.7 mph N10.8 kmh N -- 29.52 in999.7 mb 0.00 in0.0 mm 0.00 in0.0 mm 0.09 in2.3 mm
12:59 PM 25.8°F-3.4°C 21.9°F-5.6°C 85% 6.5 mph N10.5 kmh N -- 29.52 in999.7 mb 0.00 in0.0 mm 0.00 in0.0 mm 0.09 in2.3 mm
12:54 PM 25.6°F-3.6°C 21.7°F-5.7°C 85% 3.9 mph NNE6.3 kmh NNE -- 29.52 in999.7 mb 0.00 in0.0 mm 0.00 in0.0 mm 0.09 in2.3 mm
12:48 PM 25.6°F-3.6°C 22.0°F-5.6°C 86% 3.7 mph N6.0 kmh N -- 29.51 in999.3 mb 0.00 in0.0 mm 0.00 in0.0 mm 0.09 in2.3 mm
12:42 PM 25.3°F-3.7°C 21.7°F-5.7°C 86% 4.2 mph NNE6.8 kmh NNE -- 29.51 in999.3 mb 0.00 in0.0 mm 0.00 in0.0 mm 0.09 in2.3 mm
12:37 PM 24.8°F-4.0°C 21.2°F-6.0°C 86% 4.8 mph N7.7 kmh N -- 29.51 in999.3 mb 0.00 in0.0 mm 0.00 in0.0 mm 0.09 in2.3 mm
12:31 PM 24.8°F-4.0°C 21.2°F-6.0°C 86% 6.5 mph NNE10.5 kmh NNE -- 29.51 in999.3 mb 0.00 in0.0 mm 0.00 in0.0 mm 0.08 in2.0 mm
12:26 PM 24.6°F-4.1°C 21.3°F-5.9°C 87% 6.1 mph N9.8 kmh N -- 29.51 in999.3 mb 0.00 in0.0 mm 0.00 in0.0 mm 0.08 in2.0 mm
12:21 PM 24.6°F-4.1°C 21.3°F-5.9°C 87% 5.4 mph NNE8.7 kmh NNE -- 29.51 in999.3 mb 0.00 in0.0 mm 0.00 in0.0 mm 0.08 in2.0 mm
12:16 PM 24.6°F-4.1°C 21.3°F-5.9°C 87% 5.8 mph NNE9.3 kmh NNE -- 29.51 in999.3 mb 0.00 in0.0 mm 0.00 in0.0 mm 0.08 in2.0 mm
12:11 PM 24.4°F-4.2°C 21.1°F-6.1°C 87% 5.9 mph N9.5 kmh N -- 29.51 in999.3 mb 0.00 in0.0 mm 0.00 in0.0 mm 0.08 in2.0 mm
12:05 PM 24.3°F-4.3°C 21.0°F-6.1°C 87% 5.4 mph NE8.7 kmh NE -- 29.51 in999.3 mb 0.00 in0.0 mm 0.00 in0.0 mm 0.08 in2.0 mm
11:59 AM 24.4°F-4.2°C 21.1°F-6.1°C 87% 5.4 mph N8.7 kmh N -- 29.51 in999.3 mb 0.00 in0.0 mm 0.00 in0.0 mm 0.08 in2.0 mm
11:54 AM 24.6°F-4.1°C 21.6°F-5.8°C 88% 6.7 mph N10.8 kmh N -- 29.52 in999.7 mb 0.00 in0.0 mm 0.00 in0.0 mm 0.08 in2.0 mm
11:48 AM 24.6°F-4.1°C 21.6°F-5.8°C 88% 4.8 mph NNE7.7 kmh NNE -- 29.51 in999.3 mb 0.00 in0.0 mm 0.00 in0.0 mm 0.08 in2.0 mm
11:42 AM 24.5°F-4.2°C 21.5°F-5.8°C 88% 5.8 mph N9.3 kmh N -- 29.51 in999.3 mb 0.00 in0.0 mm 0.00 in0.0 mm 0.07 in1.8 mm
11:37 AM 24.7°F-4.1°C 21.9°F-5.6°C 89% 7.5 mph N12.1 kmh N -- 29.51 in999.3 mb 0.00 in0.0 mm 0.00 in0.0 mm 0.07 in1.8 mm
11:32 AM 25.1°F-3.8°C 22.6°F-5.2°C 90% 8.5 mph N13.7 kmh N -- 29.51 in999.3 mb 0.00 in0.0 mm 0.00 in0.0 mm 0.07 in1.8 mm
11:27 AM 24.9°F-3.9°C 22.7°F-5.2°C 91% 5.1 mph N8.2 kmh N -- 29.51 in999.3 mb 0.00 in0.0 mm 0.00 in0.0 mm 0.07 in1.8 mm
11:21 AM 24.3°F-4.3°C 22.1°F-5.5°C 91% 5.8 mph NNE9.3 kmh NNE -- 29.51 in999.3 mb 0.00 in0.0 mm 0.00 in0.0 mm 0.07 in1.8 mm
11:16 AM 23.6°F-4.7°C 21.6°F-5.8°C 92% 5.3 mph NNE8.5 kmh NNE -- 29.51 in999.3 mb 0.00 in0.0 mm 0.00 in0.0 mm 0.06 in1.5 mm
11:10 AM 23.3°F-4.8°C 21.3°F-5.9°C 92% 4.3 mph NNE6.9 kmh NNE -- 29.51 in999.3 mb 0.00 in0.0 mm 0.00 in0.0 mm 0.06 in1.5 mm
11:04 AM 23.1°F-4.9°C 21.4°F-5.9°C 93% 3.8 mph N6.1 kmh N -- 29.51 in999.3 mb 0.00 in0.0 mm 0.00 in0.0 mm 0.06 in1.5 mm
10:58 AM 23.1°F-4.9°C 21.4°F-5.9°C 93% 5.4 mph N8.7 kmh N -- 29.51 in999.3 mb 0.00 in0.0 mm 0.00 in0.0 mm 0.06 in1.5 mm
10:53 AM 23.0°F-5.0°C 21.3°F-5.9°C 93% 3.7 mph N6.0 kmh N -- 29.51 in999.3 mb 0.00 in0.0 mm 0.00 in0.0 mm 0.06 in1.5 mm
10:47 AM 22.8°F-5.1°C 21.3°F-5.9°C 94% 4.1 mph N6.6 kmh N -- 29.51 in999.3 mb 0.00 in0.0 mm 0.00 in0.0 mm 0.06 in1.5 mm
10:42 AM 22.7°F-5.2°C 21.2°F-6.0°C 94% 5.2 mph NNE8.4 kmh NNE -- 29.50 in999.0 mb 0.00 in0.0 mm 0.00 in0.0 mm 0.06 in1.5 mm
10:36 AM 22.5°F-5.3°C 21.0°F-6.1°C 94% 3.8 mph N6.1 kmh N -- 29.50 in999.0 mb 0.00 in0.0 mm 0.00 in0.0 mm 0.06 in1.5 mm
10:31 AM 22.5°F-5.3°C 21.3°F-5.9°C 95% 5.3 mph N8.5 kmh N -- 29.50 in999.0 mb 0.00 in0.0 mm 0.00 in0.0 mm 0.06 in1.5 mm
10:25 AM 22.7°F-5.2°C 21.5°F-5.8°C 95% 6.1 mph N9.8 kmh N -- 29.50 in999.0 mb 0.00 in0.0 mm 0.00 in0.0 mm 0.06 in1.5 mm
10:19 AM 21.9°F-5.6°C 20.9°F-6.2°C 96% 5.7 mph N9.2 kmh N -- 29.50 in999.0 mb 0.00 in0.0 mm 0.00 in0.0 mm 0.06 in1.5 mm
10:14 AM 21.8°F-5.7°C 20.8°F-6.2°C 96% 7.1 mph N11.4 kmh N -- 29.50 in999.0 mb 0.00 in0.0 mm 0.00 in0.0 mm 0.06 in1.5 mm
10:09 AM 22.1°F-5.5°C 21.1°F-6.1°C 96% 7.7 mph NNW12.4 kmh NNW -- 29.50 in999.0 mb 0.00 in0.0 mm 0.00 in0.0 mm 0.06 in1.5 mm
10:03 AM 22.6°F-5.2°C 21.6°F-5.8°C 96% 4.5 mph N7.2 kmh N -- 29.50 in999.0 mb 0.00 in0.0 mm 0.00 in0.0 mm 0.06 in1.5 mm
09:58 AM 22.8°F-5.1°C 21.8°F-5.7°C 96% 5.8 mph N9.3 kmh N -- 29.50 in999.0 mb 0.00 in0.0 mm 0.00 in0.0 mm 0.06 in1.5 mm
09:52 AM 23.1°F-4.9°C 22.4°F-5.3°C 97% 6.1 mph N9.8 kmh N -- 29.50 in999.0 mb 0.00 in0.0 mm 0.00 in0.0 mm 0.06 in1.5 mm
09:47 AM 23.4°F-4.8°C 22.7°F-5.2°C 97% 6.8 mph N10.9 kmh N -- 29.49 in998.6 mb 0.00 in0.0 mm 0.00 in0.0 mm 0.06 in1.5 mm
09:41 AM 23.7°F-4.6°C 23.0°F-5.0°C 97% 5.6 mph N9.0 kmh N -- 29.49 in998.6 mb 0.00 in0.0 mm 0.00 in0.0 mm 0.06 in1.5 mm
09:35 AM 24.4°F-4.2°C 23.7°F-4.6°C 97% 9.2 mph N14.8 kmh N -- 29.49 in998.6 mb 0.00 in0.0 mm 0.00 in0.0 mm 0.06 in1.5 mm
09:29 AM 25.3°F-3.7°C 24.6°F-4.1°C 97% 8.0 mph N12.9 kmh N -- 29.49 in998.6 mb 0.00 in0.0 mm 0.00 in0.0 mm 0.06 in1.5 mm
09:24 AM 26.2°F-3.2°C 25.5°F-3.6°C 97% 8.8 mph N14.2 kmh N -- 29.48 in998.3 mb 0.00 in0.0 mm 0.00 in0.0 mm 0.06 in1.5 mm
09:19 AM 26.6°F-3.0°C 25.9°F-3.4°C 97% 5.3 mph NNW8.5 kmh NNW -- 29.49 in998.6 mb 0.00 in0.0 mm 0.00 in0.0 mm 0.06 in1.5 mm
09:13 AM 27.3°F-2.6°C 26.6°F-3.0°C 97% 5.8 mph NW9.3 kmh NW -- 29.48 in998.3 mb 0.00 in0.0 mm 0.00 in0.0 mm 0.06 in1.5 mm
09:07 AM 27.7°F-2.4°C 27.0°F-2.8°C 97% 5.4 mph NNW8.7 kmh NNW -- 29.48 in998.3 mb 0.00 in0.0 mm 0.00 in0.0 mm 0.06 in1.5 mm
09:02 AM 27.9°F-2.3°C 27.2°F-2.7°C 97% 9.5 mph N15.3 kmh N -- 29.48 in998.3 mb 0.00 in0.0 mm 0.00 in0.0 mm 0.06 in1.5 mm
08:56 AM 28.1°F-2.2°C 27.4°F-2.6°C 97% 7.9 mph NNW12.7 kmh NNW -- 29.48 in998.3 mb 0.00 in0.0 mm 0.00 in0.0 mm 0.06 in1.5 mm
08:50 AM 28.7°F-1.8°C 28.0°F-2.2°C 97% 6.2 mph N10.0 kmh N -- 29.48 in998.3 mb 0.00 in0.0 mm 0.00 in0.0 mm 0.06 in1.5 mm
08:44 AM 29.9°F-1.2°C 29.2°F-1.6°C 97% 7.7 mph NNW12.4 kmh NNW -- 29.48 in998.3 mb 0.00 in0.0 mm 0.00 in0.0 mm 0.06 in1.5 mm
08:39 AM 30.2°F-1.0°C 29.5°F-1.4°C 97% 5.1 mph NNW8.2 kmh NNW -- 29.48 in998.3 mb 0.00 in0.0 mm 0.00 in0.0 mm 0.06 in1.5 mm
08:33 AM 30.3°F-0.9°C 29.6°F-1.3°C 97% 4.3 mph N6.9 kmh N -- 29.48 in998.3 mb 0.00 in0.0 mm 0.00 in0.0 mm 0.06 in1.5 mm
08:28 AM 30.6°F-0.8°C 29.9°F-1.2°C 97% 5.0 mph NNW8.0 kmh NNW -- 29.48 in998.3 mb 0.00 in0.0 mm 0.00 in0.0 mm 0.06 in1.5 mm
08:23 AM 30.8°F-0.7°C 30.1°F-1.1°C 97% 4.1 mph N6.6 kmh N -- 29.47 in998.0 mb 0.00 in0.0 mm 0.00 in0.0 mm 0.06 in1.5 mm
08:17 AM 31.0°F-0.6°C 30.3°F-0.9°C 97% 4.4 mph NNE7.1 kmh NNE -- 29.47 in998.0 mb 0.00 in0.0 mm 0.00 in0.0 mm 0.06 in1.5 mm
08:11 AM 31.2°F-0.4°C 30.4°F-0.9°C 97% 4.0 mph N6.4 kmh N -- 29.48 in998.3 mb 0.00 in0.0 mm 0.00 in0.0 mm 0.06 in1.5 mm
08:05 AM 31.3°F-0.4°C 30.5°F-0.8°C 97% 3.5 mph N5.6 kmh N -- 29.48 in998.3 mb 0.00 in0.0 mm 0.00 in0.0 mm 0.05 in1.3 mm
07:59 AM 31.6°F-0.2°C 30.8°F-0.7°C 97% 1.3 mph N2.1 kmh N -- 29.48 in998.3 mb 0.00 in0.0 mm 0.00 in0.0 mm 0.05 in1.3 mm
07:53 AM 32.0°F0.0°C 31.2°F-0.4°C 97% 2.2 mph NE3.5 kmh NE -- 29.49 in998.6 mb 0.00 in0.0 mm 0.00 in0.0 mm 0.05 in1.3 mm
07:47 AM 32.3°F0.2°C 31.5°F-0.3°C 97% 3.2 mph N5.1 kmh N -- 29.49 in998.6 mb 0.00 in0.0 mm 0.00 in0.0 mm 0.05 in1.3 mm
07:41 AM 32.6°F0.3°C 31.8°F-0.1°C 97% 1.4 mph N2.3 kmh N -- 29.49 in998.6 mb 0.00 in0.0 mm 0.00 in0.0 mm 0.05 in1.3 mm
07:35 AM 32.7°F0.4°C 31.9°F-0.1°C 97% 3.6 mph NNE5.8 kmh NNE -- 29.48 in998.3 mb 0.00 in0.0 mm 0.00 in0.0 mm 0.04 in1.0 mm
07:30 AM 32.7°F0.4°C 31.9°F-0.1°C 97% 4.4 mph NNE7.1 kmh NNE -- 29.48 in998.3 mb 0.00 in0.0 mm 0.00 in0.0 mm 0.04 in1.0 mm
07:24 AM 32.7°F0.4°C 31.9°F-0.1°C 97% 3.0 mph N4.8 kmh N -- 29.49 in998.6 mb 0.00 in0.0 mm 0.00 in0.0 mm 0.04 in1.0 mm
07:18 AM 32.7°F0.4°C 31.9°F-0.1°C 97% 2.6 mph N4.2 kmh N -- 29.49 in998.6 mb 0.00 in0.0 mm 0.00 in0.0 mm 0.04 in1.0 mm
07:12 AM 33.0°F0.6°C 32.2°F0.1°C 97% 2.5 mph NE4.0 kmh NE -- 29.50 in999.0 mb 0.00 in0.0 mm 0.00 in0.0 mm 0.04 in1.0 mm
07:07 AM 33.1°F0.6°C 32.3°F0.2°C 97% 2.8 mph NE4.5 kmh NE -- 29.50 in999.0 mb 0.00 in0.0 mm 0.00 in0.0 mm 0.03 in0.8 mm
07:01 AM 33.2°F0.7°C 32.4°F0.2°C 97% 0.3 mph N0.5 kmh N -- 29.50 in999.0 mb 0.00 in0.0 mm 0.00 in0.0 mm 0.03 in0.8 mm
06:56 AM 33.2°F0.7°C 32.4°F0.2°C 97% 2.2 mph N3.5 kmh N -- 29.50 in999.0 mb 0.00 in0.0 mm 0.00 in0.0 mm 0.03 in0.8 mm
06:51 AM 33.2°F0.7°C 32.4°F0.2°C 97% 1.7 mph NNE2.7 kmh NNE -- 29.51 in999.3 mb 0.00 in0.0 mm 0.00 in0.0 mm 0.02 in0.5 mm
06:45 AM 33.3°F0.7°C 32.5°F0.3°C 97% Calm Calm -- 29.52 in999.7 mb 0.00 in0.0 mm 0.00 in0.0 mm 0.02 in0.5 mm
06:40 AM 33.6°F0.9°C 32.8°F0.4°C 97% 1.1 mph NE1.8 kmh NE -- 29.52 in999.7 mb 0.00 in0.0 mm 0.00 in0.0 mm 0.01 in0.3 mm
06:34 AM 33.7°F0.9°C 32.9°F0.5°C 97% 1.4 mph SE2.3 kmh SE -- 29.52 in999.7 mb 0.00 in0.0 mm 0.00 in0.0 mm 0.01 in0.3 mm
06:28 AM 33.7°F0.9°C 32.7°F0.4°C 96% 1.2 mph SE1.9 kmh SE -- 29.53 in1000.0 mb 0.00 in0.0 mm 0.00 in0.0 mm 0.00 in0.0 mm
06:22 AM 33.7°F0.9°C 32.7°F0.4°C 96% Calm Calm -- 29.54 in1000.3 mb 0.00 in0.0 mm 0.00 in0.0 mm 0.00 in0.0 mm
06:17 AM 33.5°F0.8°C 32.5°F0.3°C 96% Calm Calm -- 29.54 in1000.3 mb 0.00 in0.0 mm 0.00 in0.0 mm 0.00 in0.0 mm
06:12 AM 33.3°F0.7°C 32.3°F0.2°C 96% 1.0 mph SE1.6 kmh SE -- 29.54 in1000.3 mb 0.00 in0.0 mm 0.00 in0.0 mm 0.00 in0.0 mm
06:07 AM 33.2°F0.7°C 32.2°F0.1°C 96% 3.0 mph SE4.8 kmh SE -- 29.54 in1000.3 mb 0.00 in0.0 mm 0.00 in0.0 mm 0.00 in0.0 mm
06:01 AM 33.2°F0.7°C 32.2°F0.1°C 96% 2.7 mph SSE4.3 kmh SSE -- 29.54 in1000.3 mb 0.00 in0.0 mm 0.00 in0.0 mm 0.00 in0.0 mm
05:56 AM 33.2°F0.7°C 32.2°F0.1°C 96% 2.0 mph SE3.2 kmh SE -- 29.55 in1000.7 mb 0.00 in0.0 mm 0.00 in0.0 mm 0.00 in0.0 mm
05:50 AM 33.1°F0.6°C 32.1°F0.1°C 96% 1.4 mph SSE2.3 kmh SSE -- 29.55 in1000.7 mb 0.00 in0.0 mm 0.00 in0.0 mm 0.00 in0.0 mm
05:45 AM 33.1°F0.6°C 32.1°F0.1°C 96% 3.8 mph SE6.1 kmh SE -- 29.55 in1000.7 mb 0.00 in0.0 mm 0.00 in0.0 mm 0.00 in0.0 mm
05:39 AM 32.9°F0.5°C 31.9°F-0.1°C 96% 4.4 mph SSE7.1 kmh SSE -- 29.55 in1000.7 mb 0.00 in0.0 mm 0.00 in0.0 mm 0.00 in0.0 mm
05:34 AM 32.7°F0.4°C 31.7°F-0.2°C 96% 6.2 mph SE10.0 kmh SE -- 29.56 in1001.0 mb 0.00 in0.0 mm 0.00 in0.0 mm 0.00 in0.0 mm
05:28 AM 32.7°F0.4°C 31.7°F-0.2°C 96% 4.8 mph SSE7.7 kmh SSE -- 29.56 in1001.0 mb 0.00 in0.0 mm 0.00 in0.0 mm 0.00 in0.0 mm
05:23 AM 32.7°F0.4°C 31.7°F-0.2°C 96% 4.2 mph S6.8 kmh S -- 29.56 in1001.0 mb 0.00 in0.0 mm 0.00 in0.0 mm 0.00 in0.0 mm
05:17 AM 32.7°F0.4°C 31.7°F-0.2°C 96% 2.3 mph SE3.7 kmh SE -- 29.56 in1001.0 mb 0.00 in0.0 mm 0.00 in0.0 mm 0.00 in0.0 mm
05:12 AM 32.6°F0.3°C 31.6°F-0.2°C 96% 0.7 mph SE1.1 kmh SE -- 29.57 in1001.4 mb 0.00 in0.0 mm 0.00 in0.0 mm 0.00 in0.0 mm
05:06 AM 32.4°F0.2°C 31.4°F-0.3°C 96% 3.1 mph SE5.0 kmh SE -- 29.58 in1001.7 mb 0.00 in0.0 mm 0.00 in0.0 mm 0.00 in0.0 mm
05:01 AM 32.3°F0.2°C 31.3°F-0.4°C 96% 5.0 mph SSE8.0 kmh SSE -- 29.58 in1001.7 mb 0.00 in0.0 mm 0.00 in0.0 mm 0.00 in0.0 mm
04:55 AM 32.2°F0.1°C 31.2°F-0.4°C 96% 2.5 mph SSE4.0 kmh SSE -- 29.58 in1001.7 mb 0.00 in0.0 mm 0.00 in0.0 mm 0.00 in0.0 mm
04:50 AM 32.1°F0.1°C 31.1°F-0.5°C 96% 4.1 mph SE6.6 kmh SE -- 29.59 in1002.0 mb 0.00 in0.0 mm 0.00 in0.0 mm 0.00 in0.0 mm
04:44 AM 32.0°F0.0°C 31.0°F-0.6°C 96% 4.1 mph S6.6 kmh S -- 29.59 in1002.0 mb 0.00 in0.0 mm 0.00 in0.0 mm 0.00 in0.0 mm
04:38 AM 31.8°F-0.1°C 30.5°F-0.8°C 95% 4.6 mph SE7.4 kmh SE -- 29.60 in1002.4 mb 0.00 in0.0 mm 0.00 in0.0 mm 0.00 in0.0 mm
04:33 AM 31.6°F-0.2°C 30.3°F-0.9°C 95% 1.4 mph SE2.3 kmh SE -- 29.60 in1002.4 mb 0.00 in0.0 mm 0.00 in0.0 mm 0.00 in0.0 mm
04:27 AM 31.2°F-0.4°C 29.9°F-1.2°C 95% 2.2 mph SE3.5 kmh SE -- 29.60 in1002.4 mb 0.00 in0.0 mm 0.00 in0.0 mm 0.00 in0.0 mm
04:22 AM 30.9°F-0.6°C 29.6°F-1.3°C 95% 2.9 mph S4.7 kmh S -- 29.61 in1002.7 mb 0.00 in0.0 mm 0.00 in0.0 mm 0.00 in0.0 mm
04:16 AM 29.9°F-1.2°C 28.6°F-1.9°C 95% 2.2 mph SSE3.5 kmh SSE -- 29.61 in1002.7 mb 0.00 in0.0 mm 0.00 in0.0 mm 0.00 in0.0 mm
04:10 AM 28.3°F-2.1°C 27.1°F-2.7°C 95% 2.9 mph SSE4.7 kmh SSE -- 29.61 in1002.7 mb 0.00 in0.0 mm 0.00 in0.0 mm 0.00 in0.0 mm
04:04 AM 27.0°F-2.8°C 25.8°F-3.4°C 95% 2.5 mph S4.0 kmh S -- 29.62 in1003.0 mb 0.00 in0.0 mm 0.00 in0.0 mm 0.00 in0.0 mm
03:58 AM 25.6°F-3.6°C 24.4°F-4.2°C 95% 1.6 mph SE2.6 kmh SE -- 29.62 in1003.0 mb 0.00 in0.0 mm 0.00 in0.0 mm 0.00 in0.0 mm
03:53 AM 24.2°F-4.3°C 23.0°F-5.0°C 95% 0.4 mph SSE0.6 kmh SSE -- 29.62 in1003.0 mb 0.00 in0.0 mm 0.00 in0.0 mm 0.00 in0.0 mm
03:48 AM 23.5°F-4.7°C 22.3°F-5.4°C 95% Calm Calm -- 29.63 in1003.4 mb 0.00 in0.0 mm 0.00 in0.0 mm 0.00 in0.0 mm
03:42 AM 23.0°F-5.0°C 21.5°F-5.8°C 94% Calm Calm -- 29.64 in1003.7 mb 0.00 in0.0 mm 0.00 in0.0 mm 0.00 in0.0 mm
03:37 AM 22.7°F-5.2°C 21.2°F-6.0°C 94% 0.9 mph N1.4 kmh N -- 29.64 in1003.7 mb 0.00 in0.0 mm 0.00 in0.0 mm 0.00 in0.0 mm
03:31 AM 22.5°F-5.3°C 21.0°F-6.1°C 94% 0.3 mph NNE0.5 kmh NNE -- 29.65 in1004.1 mb 0.00 in0.0 mm 0.00 in0.0 mm 0.00 in0.0 mm
03:25 AM 22.2°F-5.4°C 20.7°F-6.3°C 94% Calm Calm -- 29.65 in1004.1 mb 0.00 in0.0 mm 0.00 in0.0 mm 0.00 in0.0 mm
03:20 AM 22.1°F-5.5°C 20.4°F-6.4°C 93% 0.2 mph N0.3 kmh N -- 29.66 in1004.4 mb 0.00 in0.0 mm 0.00 in0.0 mm 0.00 in0.0 mm
03:15 AM 22.0°F-5.6°C 20.5°F-6.4°C 94% Calm Calm -- 29.66 in1004.4 mb 0.00 in0.0 mm 0.00 in0.0 mm 0.00 in0.0 mm
03:10 AM 21.8°F-5.7°C 20.3°F-6.5°C 94% 1.0 mph N1.6 kmh N -- 29.67 in1004.7 mb 0.00 in0.0 mm 0.00 in0.0 mm 0.00 in0.0 mm
03:04 AM 21.7°F-5.7°C 20.2°F-6.6°C 94% 1.5 mph N2.4 kmh N -- 29.67 in1004.7 mb 0.00 in0.0 mm 0.00 in0.0 mm 0.00 in0.0 mm
02:58 AM 21.5°F-5.8°C 20.0°F-6.7°C 94% 0.7 mph NNE1.1 kmh NNE -- 29.68 in1005.1 mb 0.00 in0.0 mm 0.00 in0.0 mm 0.00 in0.0 mm
02:53 AM 21.3°F-5.9°C 19.6°F-6.9°C 93% 1.2 mph N1.9 kmh N -- 29.68 in1005.1 mb 0.00 in0.0 mm 0.00 in0.0 mm 0.00 in0.0 mm
02:48 AM 21.1°F-6.1°C 19.6°F-6.9°C 94% 2.6 mph NE4.2 kmh NE -- 29.68 in1005.1 mb 0.00 in0.0 mm 0.00 in0.0 mm 0.00 in0.0 mm
02:42 AM 21.0°F-6.1°C 19.6°F-6.9°C 94% 1.4 mph N2.3 kmh N -- 29.70 in1005.8 mb 0.00 in0.0 mm 0.00 in0.0 mm 0.00 in0.0 mm
02:37 AM 20.8°F-6.2°C 19.4°F-7.0°C 94% 2.0 mph N3.2 kmh N -- 29.70 in1005.8 mb 0.00 in0.0 mm 0.00 in0.0 mm 0.00 in0.0 mm
02:31 AM 20.6°F-6.3°C 18.7°F-7.4°C 92% 2.8 mph N4.5 kmh N -- 29.71 in1006.1 mb 0.00 in0.0 mm 0.00 in0.0 mm 0.00 in0.0 mm
02:26 AM 20.5°F-6.4°C 18.6°F-7.4°C 92% 0.8 mph N1.3 kmh N -- 29.71 in1006.1 mb 0.00 in0.0 mm 0.00 in0.0 mm 0.00 in0.0 mm
02:20 AM 20.5°F-6.4°C 18.8°F-7.3°C 93% 1.2 mph N1.9 kmh N -- 29.72 in1006.4 mb 0.00 in0.0 mm 0.00 in0.0 mm 0.00 in0.0 mm
02:15 AM 20.3°F-6.5°C 18.4°F-7.6°C 92% 2.5 mph N4.0 kmh N -- 29.73 in1006.8 mb 0.00 in0.0 mm 0.00 in0.0 mm 0.00 in0.0 mm
02:09 AM 20.2°F-6.6°C 18.5°F-7.5°C 93% 2.5 mph NW4.0 kmh NW -- 29.73 in1006.8 mb 0.00 in0.0 mm 0.00 in0.0 mm 0.00 in0.0 mm
02:03 AM 20.0°F-6.7°C 18.1°F-7.7°C 92% 1.7 mph N2.7 kmh N -- 29.74 in1007.1 mb 0.00 in0.0 mm 0.00 in0.0 mm 0.00 in0.0 mm
01:57 AM 19.8°F-6.8°C 18.1°F-7.7°C 93% 2.8 mph N4.5 kmh N -- 29.75 in1007.5 mb 0.00 in0.0 mm 0.00 in0.0 mm 0.00 in0.0 mm
01:52 AM 19.6°F-6.9°C 17.9°F-7.8°C 93% 0.7 mph N1.1 kmh N -- 29.76 in1007.8 mb 0.00 in0.0 mm 0.00 in0.0 mm 0.00 in0.0 mm
01:46 AM 19.6°F-6.9°C 17.9°F-7.8°C 93% 3.5 mph NE5.6 kmh NE -- 29.76 in1007.8 mb 0.00 in0.0 mm 0.00 in0.0 mm 0.00 in0.0 mm
01:41 AM 19.4°F-7.0°C 17.7°F-7.9°C 93% 2.5 mph NE4.0 kmh NE -- 29.77 in1008.1 mb 0.00 in0.0 mm 0.00 in0.0 mm 0.00 in0.0 mm
01:35 AM 19.1°F-7.2°C 17.2°F-8.2°C 92% 2.3 mph NE3.7 kmh NE -- 29.78 in1008.5 mb 0.00 in0.0 mm 0.00 in0.0 mm 0.00 in0.0 mm
01:29 AM 19.1°F-7.2°C 17.2°F-8.2°C 92% 2.1 mph N3.4 kmh N -- 29.79 in1008.8 mb 0.00 in0.0 mm 0.00 in0.0 mm 0.00 in0.0 mm
01:23 AM 19.0°F-7.2°C 17.1°F-8.3°C 92% 2.5 mph N4.0 kmh N -- 29.79 in1008.8 mb 0.00 in0.0 mm 0.00 in0.0 mm 0.00 in0.0 mm
01:17 AM 18.7°F-7.4°C 16.8°F-8.4°C 92% 1.9 mph N3.1 kmh N -- 29.80 in1009.1 mb 0.00 in0.0 mm 0.00 in0.0 mm 0.00 in0.0 mm
01:11 AM 18.3°F-7.6°C 16.4°F-8.7°C 92% 2.4 mph NNE3.9 kmh NNE -- 29.80 in1009.1 mb 0.00 in0.0 mm 0.00 in0.0 mm 0.00 in0.0 mm
01:06 AM 18.1°F-7.7°C 16.2°F-8.8°C 92% 1.4 mph N2.3 kmh N -- 29.81 in1009.5 mb 0.00 in0.0 mm 0.00 in0.0 mm 0.00 in0.0 mm
01:00 AM 18.0°F-7.8°C 15.8°F-9.0°C 91% 2.4 mph NNE3.9 kmh NNE -- 29.82 in1009.8 mb 0.00 in0.0 mm 0.00 in0.0 mm 0.00 in0.0 mm
12:54 AM 17.8°F-7.9°C 15.9°F-8.9°C 92% 1.4 mph NNE2.3 kmh NNE -- 29.83 in1010.2 mb 0.00 in0.0 mm 0.00 in0.0 mm 0.00 in0.0 mm
12:48 AM 17.6°F-8.0°C 15.4°F-9.2°C 91% 0.7 mph NNE1.1 kmh NNE -- 29.83 in1010.2 mb 0.00 in0.0 mm 0.00 in0.0 mm 0.00 in0.0 mm
12:43 AM 17.6°F-8.0°C 15.4°F-9.2°C 91% 0.1 mph E0.2 kmh E -- 29.85 in1010.8 mb 0.00 in0.0 mm 0.00 in0.0 mm 0.00 in0.0 mm
12:37 AM 17.1°F-8.3°C 14.7°F-9.6°C 90% 0.1 mph E0.2 kmh E -- 29.86 in1011.2 mb 0.00 in0.0 mm 0.00 in0.0 mm 0.00 in0.0 mm
12:31 AM 17.0°F-8.3°C 14.8°F-9.6°C 91% Calm Calm -- 29.86 in1011.2 mb 0.00 in0.0 mm 0.00 in0.0 mm 0.00 in0.0 mm
12:26 AM 16.8°F-8.4°C 14.6°F-9.7°C 91% Calm Calm -- 29.87 in1011.5 mb 0.00 in0.0 mm 0.00 in0.0 mm 0.00 in0.0 mm
12:21 AM 16.8°F-8.4°C 14.6°F-9.7°C 91% 1.3 mph NE2.1 kmh NE -- 29.88 in1011.9 mb 0.00 in0.0 mm 0.00 in0.0 mm 0.00 in0.0 mm
12:16 AM 16.6°F-8.6°C 14.4°F-9.8°C 91% Calm Calm -- 29.88 in1011.9 mb 0.00 in0.0 mm 0.00 in0.0 mm 0.00 in0.0 mm
12:10 AM 16.3°F-8.7°C 13.9°F-10.1°C 90% Calm Calm -- 29.89 in1012.2 mb 0.00 in0.0 mm 0.00 in0.0 mm 0.00 in0.0 mm
12:05 AM 16.0°F-8.9°C 13.6°F-10.2°C 90% 1.3 mph ESE2.1 kmh ESE -- 29.89 in1012.2 mb 0.00 in0.0 mm 0.00 in0.0 mm 0.00 in0.0 mm
12:00 AM 15.6°F-9.1°C 13.2°F-10.4°C 90% 2.6 mph ESE4.2 kmh ESE -- 29.89 in1012.2 mb 0.00 in0.0 mm 0.00 in0.0 mm 0.00 in0.0 mm